createdAt,value
2016-11-02T00:01:01.890Z,98.55
2016-11-02T00:01:43.626Z,98.55
2016-11-02T00:04:04.174Z,98.74
2016-11-02T00:04:45.750Z,98.36
2016-11-02T00:07:01.206Z,97.89
2016-11-02T00:07:42.895Z,97.79
2016-11-02T00:08:24.306Z,97.13
2016-11-02T00:09:05.858Z,97.13
2016-11-02T00:11:20.973Z,97.08
2016-11-02T00:13:10.370Z,97.03
2016-11-02T00:13:51.901Z,96.98
2016-11-02T00:14:33.264Z,96.94
2016-11-02T00:15:14.966Z,97.08
2016-11-02T00:15:56.800Z,97.03
2016-11-02T00:17:46.144Z,97.03
2016-11-02T00:19:35.527Z,96.94
2016-11-02T00:20:17.333Z,96.79
2016-11-02T00:22:37.984Z,96.08
2016-11-02T00:23:19.755Z,96.41
2016-11-02T00:24:01.482Z,96.12
2016-11-02T00:24:43.180Z,97.17
2016-11-02T00:25:24.929Z,96.17
2016-11-02T00:26:06.573Z,96.08
2016-11-02T00:26:48.312Z,96.08
2016-11-02T00:29:09.055Z,96.75
2016-11-02T00:29:50.753Z,96.36
2016-11-02T00:30:32.464Z,96.17
2016-11-02T00:31:14.149Z,96.08
2016-11-02T00:31:55.872Z,96.84
2016-11-02T00:33:45.268Z,96.03
2016-11-02T00:34:26.966Z,96.12
2016-11-02T00:35:08.638Z,95.84
2016-11-02T00:37:03.387Z,95.46
2016-11-02T00:37:45.072Z,96.7
2016-11-02T00:38:26.847Z,96.31
2016-11-02T00:39:08.600Z,95.94
2016-11-02T00:39:50.300Z,95.94
2016-11-02T00:40:31.917Z,96.41
2016-11-02T00:41:13.642Z,95.75
2016-11-02T00:41:55.436Z,96.89
2016-11-02T00:43:50.090Z,96.51
2016-11-02T00:44:31.555Z,96.7
2016-11-02T00:45:13.081Z,96.7
2016-11-02T00:45:54.847Z,95.94
2016-11-02T00:46:36.557Z,96.22
2016-11-02T00:47:18.132Z,96.31
2016-11-02T00:47:59.864Z,96.6
2016-11-02T00:48:41.580Z,96.79
2016-11-02T00:50:31.001Z,96.89
2016-11-02T00:51:12.691Z,96.6
2016-11-02T00:51:54.586Z,97.03
2016-11-02T00:52:36.315Z,96.98
2016-11-02T00:54:30.925Z,97.13
2016-11-02T00:55:12.661Z,96.94
2016-11-02T00:55:54.338Z,96.94
2016-11-02T00:56:35.967Z,96.75
2016-11-02T00:57:17.742Z,96.89
2016-11-02T00:59:12.416Z,96.55
2016-11-02T01:01:01.798Z,96.89
2016-11-02T01:02:56.481Z,96.98
2016-11-02T01:03:37.975Z,96.98
2016-11-02T01:04:19.603Z,96.51
2016-11-02T01:05:01.123Z,96.89
2016-11-02T01:07:16.458Z,96.89
2016-11-02T01:07:58.148Z,97.08
2016-11-02T01:08:39.923Z,96.89
2016-11-02T01:09:21.674Z,96.89
2016-11-02T01:10:03.321Z,97.08
2016-11-02T01:12:24.118Z,97.27
2016-11-02T01:13:05.744Z,97.36
2016-11-02T01:13:47.424Z,97.08
2016-11-02T01:14:29.197Z,97.36
2016-11-02T01:15:10.916Z,97.27
2016-11-02T01:17:05.544Z,97.27
2016-11-02T01:17:47.230Z,97.08
2016-11-02T01:18:28.848Z,97.74
2016-11-02T01:19:10.604Z,97.55
2016-11-02T01:19:52.341Z,97.74
2016-11-02T01:20:34.076Z,97.93
2016-11-02T01:22:34.196Z,97.55
2016-11-02T01:23:16.014Z,97.79
2016-11-02T01:23:57.751Z,97.55
2016-11-02T01:24:39.446Z,97.74
2016-11-02T01:25:21.059Z,97.55
2016-11-02T01:27:10.462Z,98.03
2016-11-02T01:27:52.189Z,97.55
2016-11-02T01:28:33.923Z,97.74
2016-11-02T01:29:15.656Z,98.03
2016-11-02T01:31:30.764Z,97.74
2016-11-02T01:32:12.268Z,97.84
2016-11-02T01:32:53.907Z,97.46
2016-11-02T01:33:35.155Z,97.74
2016-11-02T01:35:24.499Z,97.51
2016-11-02T01:36:06.268Z,97.65
2016-11-02T01:38:21.683Z,97.41
2016-11-02T01:39:03.346Z,97.74
2016-11-02T01:39:44.983Z,97.79
2016-11-02T01:40:26.617Z,97.74
2016-11-02T01:41:08.389Z,97.7
2016-11-02T01:41:50.176Z,97.89
2016-11-02T01:42:31.720Z,97.84
2016-11-02T01:43:13.462Z,97.84
2016-11-02T01:43:55.131Z,97.93
2016-11-02T01:44:36.906Z,98.03
2016-11-02T01:46:52.247Z,98.32
2016-11-02T01:48:41.572Z,98.22
2016-11-02T01:51:02.292Z,98.32
2016-11-02T01:51:43.961Z,98.22
2016-11-02T01:54:04.644Z,98.13
2016-11-02T01:54:46.331Z,97.93
2016-11-02T01:55:28.045Z,97.84
2016-11-02T01:57:22.815Z,98.32
2016-11-02T01:58:04.453Z,98.03
2016-11-02T01:58:46.145Z,98.32
2016-11-02T01:59:27.597Z,98.41
2016-11-02T02:00:08.123Z,98.41
2016-11-02T02:00:48.663Z,98.03
2016-11-02T02:01:29.204Z,98.13
2016-11-02T02:02:09.715Z,98.69
2016-11-02T02:02:50.242Z,98.6
2016-11-02T02:03:30.786Z,98.41
2016-11-02T02:04:11.328Z,98.22
2016-11-02T02:04:51.864Z,98.22
2016-11-02T02:05:32.391Z,98.03
2016-11-02T02:06:12.913Z,98.32
2016-11-02T02:06:53.437Z,97.93
2016-11-02T02:07:33.987Z,98.13
2016-11-02T02:08:14.531Z,98.36
2016-11-02T02:08:55.049Z,98.79
2016-11-02T02:09:35.544Z,98.36
2016-11-02T02:10:16.080Z,98.83
2016-11-02T02:10:56.626Z,98.46
2016-11-02T02:11:37.140Z,98.36
2016-11-02T02:12:17.668Z,98.65
2016-11-02T02:12:58.206Z,98.27
2016-11-02T02:13:38.749Z,98.27
2016-11-02T02:14:19.290Z,98.46
2016-11-02T02:14:59.840Z,98.46
2016-11-02T02:15:40.390Z,98.65
2016-11-02T02:16:20.904Z,98.55
2016-11-02T02:17:01.432Z,98.27
2016-11-02T02:17:41.974Z,98.46
2016-11-02T02:18:22.504Z,98.74
2016-11-02T02:19:03.025Z,98.65
2016-11-02T02:19:43.553Z,98.65
2016-11-02T02:20:24.087Z,99.31
2016-11-02T02:21:04.603Z,99.64
2016-11-02T02:21:45.144Z,99.36
2016-11-02T02:22:25.679Z,99.16
2016-11-02T02:23:06.202Z,99.16
2016-11-02T02:23:46.729Z,99.36
2016-11-02T02:24:27.260Z,99.07
2016-11-02T02:25:07.793Z,99.74
2016-11-02T02:25:48.333Z,99.36
2016-11-02T02:26:28.873Z,99.55
2016-11-02T02:27:09.405Z,99.36
2016-11-02T02:27:49.943Z,99.64
2016-11-02T02:28:30.463Z,99.26
2016-11-02T02:29:11.009Z,99.74
2016-11-02T02:29:51.539Z,99.74
2016-11-02T02:30:32.067Z,99.64
2016-11-02T02:31:12.602Z,99.64
2016-11-02T02:31:53.121Z,99.99
2016-11-02T02:32:33.647Z,99.99
2016-11-02T02:33:14.196Z,99.99
2016-11-02T02:33:54.732Z,99.99
2016-11-02T02:34:35.277Z,99.99
2016-11-02T02:35:15.795Z,99.99
2016-11-02T02:35:56.333Z,99.99
2016-11-02T02:36:36.863Z,99.99
2016-11-02T02:37:17.403Z,99.99
2016-11-02T02:37:57.942Z,99.99
2016-11-02T02:38:38.468Z,99.99
2016-11-02T02:39:18.995Z,99.99
2016-11-02T02:39:59.515Z,99.99
2016-11-02T02:40:40.039Z,99.99
2016-11-02T02:41:20.574Z,99.99
2016-11-02T02:42:01.126Z,99.99
2016-11-02T02:42:41.642Z,99.99
2016-11-02T02:43:22.164Z,99.99
2016-11-02T02:44:02.695Z,99.99
2016-11-02T02:44:43.233Z,99.99
2016-11-02T02:45:23.770Z,99.99
2016-11-02T02:46:04.294Z,99.99
2016-11-02T02:46:44.819Z,99.99
2016-11-02T02:47:25.350Z,99.99
2016-11-02T02:48:05.891Z,99.99
2016-11-02T02:48:46.413Z,99.99
2016-11-02T02:49:26.942Z,99.99
2016-11-02T02:50:07.467Z,99.99
2016-11-02T02:50:48.005Z,99.99
2016-11-02T02:51:28.552Z,99.99
2016-11-02T02:52:09.090Z,99.99
2016-11-02T02:52:49.621Z,99.99
2016-11-02T02:53:30.150Z,99.99
2016-11-02T02:54:10.698Z,99.99
2016-11-02T02:54:51.239Z,99.99
2016-11-02T02:55:31.761Z,99.99
2016-11-02T02:56:12.296Z,99.99
2016-11-02T02:56:52.829Z,99.99
2016-11-02T02:57:33.364Z,99.99
2016-11-02T02:58:13.900Z,99.99
2016-11-02T02:58:54.422Z,99.99
2016-11-02T02:59:34.970Z,99.99
2016-11-02T03:00:15.492Z,99.99
2016-11-02T03:00:56.035Z,99.99
2016-11-02T03:01:36.555Z,99.99
2016-11-02T03:02:17.075Z,99.99
2016-11-02T03:02:57.607Z,99.99
2016-11-02T03:03:38.141Z,99.99
2016-11-02T03:04:18.655Z,99.99
2016-11-02T03:04:59.185Z,99.99
2016-11-02T03:05:39.769Z,99.99
2016-11-02T03:06:20.295Z,99.99
2016-11-02T03:07:00.835Z,99.99
2016-11-02T03:07:41.376Z,99.99
2016-11-02T03:08:21.920Z,99.99
2016-11-02T03:09:02.439Z,99.99
2016-11-02T03:09:42.980Z,99.99
2016-11-02T03:10:23.509Z,99.99
2016-11-02T03:11:04.041Z,99.99
2016-11-02T03:11:44.567Z,99.99
2016-11-02T03:12:25.084Z,99.99
2016-11-02T03:13:05.611Z,99.99
2016-11-02T03:13:46.138Z,99.99
2016-11-02T03:14:26.670Z,99.99
2016-11-02T03:15:07.207Z,99.99
2016-11-02T03:15:47.736Z,99.99
2016-11-02T03:16:28.264Z,99.99
2016-11-02T03:17:08.795Z,99.99
2016-11-02T03:17:49.329Z,99.99
2016-11-02T03:18:29.867Z,99.99
2016-11-02T03:19:10.409Z,99.99
2016-11-02T03:19:50.939Z,99.99
2016-11-02T03:20:31.484Z,99.99
2016-11-02T03:21:12.004Z,99.99
2016-11-02T03:21:52.536Z,99.99
2016-11-02T03:22:33.081Z,99.99
2016-11-02T03:23:13.625Z,99.99
2016-11-02T03:23:54.146Z,99.99
2016-11-02T03:24:34.667Z,99.99
2016-11-02T03:25:15.192Z,99.99
2016-11-02T03:25:55.733Z,99.99
2016-11-02T03:26:36.273Z,99.99
2016-11-02T03:27:16.791Z,99.99
2016-11-02T03:27:57.320Z,99.99
2016-11-02T03:28:37.853Z,99.99
2016-11-02T03:29:18.387Z,99.99
2016-11-02T03:29:58.924Z,99.99
2016-11-02T03:30:39.465Z,99.99
2016-11-02T03:31:19.996Z,99.99
2016-11-02T03:32:00.535Z,99.99
2016-11-02T03:32:41.048Z,99.99
2016-11-02T03:33:21.588Z,99.99
2016-11-02T03:34:02.127Z,99.99
2016-11-02T03:34:42.664Z,99.99
2016-11-02T03:35:23.190Z,99.99
2016-11-02T03:36:03.724Z,99.99
2016-11-02T03:36:44.252Z,99.99
2016-11-02T03:37:24.794Z,99.99
2016-11-02T03:38:05.325Z,99.99
2016-11-02T03:38:45.849Z,99.99
2016-11-02T03:39:26.385Z,99.99
2016-11-02T03:40:06.900Z,99.99
2016-11-02T03:40:47.435Z,99.99
2016-11-02T03:41:27.967Z,99.99
2016-11-02T03:42:08.500Z,99.99
2016-11-02T03:42:49.039Z,99.99
2016-11-02T03:43:29.567Z,99.99
2016-11-02T03:44:10.097Z,99.99
2016-11-02T03:44:50.636Z,99.99
2016-11-02T03:45:31.164Z,99.99
2016-11-02T03:46:11.696Z,99.99
2016-11-02T03:46:52.231Z,99.99
2016-11-02T03:47:32.759Z,99.99
2016-11-02T03:48:13.300Z,99.99
2016-11-02T03:48:53.847Z,99.99
2016-11-02T03:49:34.384Z,99.99
2016-11-02T03:50:14.905Z,99.99
2016-11-02T03:50:55.439Z,99.99
2016-11-02T03:51:35.983Z,99.99
2016-11-02T03:52:16.524Z,99.99
2016-11-02T03:52:57.042Z,99.99
2016-11-02T03:53:37.592Z,99.99
2016-11-02T03:54:18.087Z,99.99
2016-11-02T03:54:58.620Z,99.99
2016-11-02T03:55:39.158Z,99.99
2016-11-02T03:56:19.691Z,99.99
2016-11-02T03:57:00.219Z,99.99
2016-11-02T03:57:40.761Z,99.99
2016-11-02T03:58:21.292Z,99.99
2016-11-02T03:59:01.829Z,99.99
2016-11-02T03:59:42.369Z,99.99
2016-11-02T04:00:22.906Z,99.99
2016-11-02T04:01:03.437Z,99.99
2016-11-02T04:01:43.983Z,99.99
2016-11-02T04:02:24.504Z,99.99
2016-11-02T04:03:05.046Z,99.99
2016-11-02T04:03:45.581Z,99.99
2016-11-02T04:04:26.106Z,99.99
2016-11-02T04:05:06.623Z,99.99
2016-11-02T04:05:47.151Z,99.99
2016-11-02T04:06:27.695Z,99.99
2016-11-02T04:07:08.222Z,99.99
2016-11-02T04:07:48.753Z,99.99
2016-11-02T04:08:29.296Z,99.99
2016-11-02T04:09:09.860Z,99.99
2016-11-02T04:09:50.394Z,99.99
2016-11-02T04:10:30.918Z,99.99
2016-11-02T04:11:11.429Z,99.99
2016-11-02T04:11:51.960Z,99.99
2016-11-02T04:12:32.490Z,99.99
2016-11-02T04:13:13.022Z,99.99
2016-11-02T04:13:53.551Z,99.99
2016-11-02T04:14:34.086Z,99.99
2016-11-02T04:15:14.628Z,99.99
2016-11-02T04:15:55.187Z,99.99
2016-11-02T04:16:35.712Z,99.99
2016-11-02T04:17:16.243Z,99.99
2016-11-02T04:17:56.847Z,99.99
2016-11-02T04:18:37.369Z,99.99
2016-11-02T04:19:17.917Z,99.99
2016-11-02T04:19:58.446Z,99.99
2016-11-02T04:20:38.990Z,99.99
2016-11-02T04:21:19.516Z,99.99
2016-11-02T04:22:00.064Z,99.99
2016-11-02T04:22:40.578Z,99.99
2016-11-02T04:23:21.109Z,99.99
2016-11-02T04:24:01.628Z,99.99
2016-11-02T04:24:42.161Z,99.99
2016-11-02T04:25:22.690Z,99.99
2016-11-02T04:26:03.237Z,99.99
2016-11-02T04:26:43.750Z,99.99
2016-11-02T04:27:24.279Z,99.99
2016-11-02T04:28:04.821Z,99.99
2016-11-02T04:28:45.366Z,99.99
2016-11-02T04:29:25.897Z,99.99
2016-11-02T04:30:06.429Z,99.99
2016-11-02T04:30:46.974Z,99.99
2016-11-02T04:31:27.486Z,99.99
2016-11-02T04:32:08.011Z,99.99
2016-11-02T04:32:48.548Z,99.99
2016-11-02T04:33:29.089Z,99.99
2016-11-02T04:34:09.637Z,99.99
2016-11-02T04:34:50.214Z,99.99
2016-11-02T04:35:30.738Z,99.99
2016-11-02T04:36:11.273Z,99.99
2016-11-02T04:36:51.804Z,99.99
2016-11-02T04:37:32.336Z,99.99
2016-11-02T04:38:12.868Z,99.99
2016-11-02T04:38:53.401Z,99.99
2016-11-02T04:39:33.937Z,99.99
2016-11-02T04:40:14.464Z,99.99
2016-11-02T04:40:54.984Z,99.99
2016-11-02T04:41:35.521Z,99.99
2016-11-02T04:42:16.050Z,99.99
2016-11-02T04:42:56.588Z,99.99
2016-11-02T04:43:37.108Z,99.99
2016-11-02T04:44:17.639Z,99.99
2016-11-02T04:44:58.147Z,99.99
2016-11-02T04:45:38.688Z,99.99
2016-11-02T04:46:19.226Z,99.99
2016-11-02T04:46:59.948Z,99.99
2016-11-02T04:47:40.751Z,99.99
2016-11-02T04:48:21.234Z,99.99
2016-11-02T04:49:01.760Z,99.99
2016-11-02T04:49:42.283Z,99.99
2016-11-02T04:50:22.805Z,99.99
2016-11-02T04:51:03.317Z,99.99
2016-11-02T04:51:43.846Z,99.99
2016-11-02T04:52:24.402Z,99.99
2016-11-02T04:53:04.906Z,99.99
2016-11-02T04:53:45.435Z,99.99
2016-11-02T04:54:25.997Z,99.99
2016-11-02T04:55:06.592Z,99.99
2016-11-02T04:55:47.213Z,99.99
2016-11-02T04:56:27.835Z,99.99
2016-11-02T04:57:08.397Z,99.99
2016-11-02T04:57:48.926Z,99.99
2016-11-02T04:58:29.447Z,99.99
2016-11-02T04:59:09.988Z,99.99
2016-11-02T04:59:50.497Z,99.99
2016-11-02T05:00:31.010Z,99.99
2016-11-02T05:01:11.542Z,99.99
2016-11-02T05:01:52.070Z,99.99
2016-11-02T05:02:32.613Z,99.99
2016-11-02T05:03:13.148Z,99.99
2016-11-02T05:03:53.675Z,99.99
2016-11-02T05:04:34.222Z,99.99
2016-11-02T05:05:14.731Z,99.99
2016-11-02T05:05:55.262Z,99.99
2016-11-02T05:06:35.801Z,99.99
2016-11-02T05:07:16.324Z,99.99
2016-11-02T05:07:56.871Z,99.99
2016-11-02T05:08:37.424Z,99.99
2016-11-02T05:09:17.951Z,99.99
2016-11-02T05:09:58.492Z,99.99
2016-11-02T05:10:39.032Z,99.99
2016-11-02T05:11:19.561Z,99.99
2016-11-02T05:12:00.100Z,99.99
2016-11-02T05:12:40.630Z,99.99
2016-11-02T05:13:21.181Z,99.99
2016-11-02T05:14:01.723Z,99.99
2016-11-02T05:14:42.249Z,99.99
2016-11-02T05:15:22.817Z,99.99
2016-11-02T05:16:03.324Z,99.99
2016-11-02T05:16:43.841Z,99.99
2016-11-02T05:17:24.350Z,99.99
2016-11-02T05:18:04.878Z,99.99
2016-11-02T05:18:45.409Z,99.99
2016-11-02T05:19:25.939Z,99.99
2016-11-02T05:20:06.535Z,99.99
2016-11-02T05:20:47.081Z,99.99
2016-11-02T05:21:27.613Z,99.99
2016-11-02T05:22:08.148Z,99.99
2016-11-02T05:22:49.028Z,99.99
2016-11-02T05:23:29.646Z,99.99
2016-11-02T05:24:10.172Z,99.99
2016-11-02T05:24:50.700Z,99.99
2016-11-02T05:25:31.229Z,99.99
2016-11-02T05:26:11.736Z,99.99
2016-11-02T05:26:52.245Z,99.99
2016-11-02T05:27:32.773Z,99.99
2016-11-02T05:28:13.314Z,99.99
2016-11-02T05:28:54.112Z,99.99
2016-11-02T05:29:34.811Z,99.99
2016-11-02T05:30:15.549Z,99.99
2016-11-02T05:30:56.348Z,99.99
2016-11-02T05:31:36.953Z,99.99
2016-11-02T05:32:17.530Z,99.99
2016-11-02T05:32:58.059Z,99.99
2016-11-02T05:33:38.594Z,99.99
2016-11-02T05:34:19.136Z,99.99
2016-11-02T05:34:59.701Z,99.99
2016-11-02T05:36:53.755Z,99.99
2016-11-02T05:37:34.258Z,99.99
2016-11-02T05:38:14.792Z,99.99
2016-11-02T05:38:55.320Z,99.99
2016-11-02T05:39:35.838Z,99.99
2016-11-02T05:40:16.572Z,99.99
2016-11-02T05:40:56.916Z,99.99
2016-11-02T05:41:37.448Z,99.99
2016-11-02T05:42:17.960Z,99.99
2016-11-02T05:42:58.635Z,99.99
2016-11-02T05:43:39.163Z,99.99
2016-11-02T05:44:19.661Z,99.99
2016-11-02T05:45:00.198Z,99.99
2016-11-02T05:45:40.697Z,99.99
2016-11-02T05:46:21.214Z,99.99
2016-11-02T05:47:01.712Z,99.99
2016-11-02T05:47:42.224Z,99.99
2016-11-02T05:48:22.739Z,99.99
2016-11-02T05:49:03.268Z,99.99
2016-11-02T05:49:43.804Z,99.99
2016-11-02T05:50:24.344Z,99.99
2016-11-02T05:51:04.861Z,99.99
2016-11-02T05:51:45.403Z,99.45
2016-11-02T05:52:25.923Z,99.64
2016-11-02T05:53:06.433Z,99.74
2016-11-02T05:53:46.958Z,99.74
2016-11-02T05:54:27.498Z,99.26
2016-11-02T05:55:08.032Z,99.26
2016-11-02T05:55:48.554Z,99.84
2016-11-02T05:56:29.074Z,99.84
2016-11-02T05:57:09.605Z,99.26
2016-11-02T05:57:50.130Z,99.16
2016-11-02T05:58:30.668Z,98.79
2016-11-02T05:59:11.187Z,98.5
2016-11-02T05:59:51.721Z,97.74
2016-11-02T06:00:32.242Z,97.55
2016-11-02T06:01:12.784Z,97.45
2016-11-02T06:01:53.302Z,97.64
2016-11-02T06:02:33.842Z,97.27
2016-11-02T06:03:14.373Z,97.74
2016-11-02T06:03:54.910Z,97.55
2016-11-02T06:04:35.413Z,97.55
2016-11-02T06:05:15.940Z,97.64
2016-11-02T06:05:56.470Z,97.55
2016-11-02T06:06:37.009Z,98.12
2016-11-02T06:07:17.535Z,97.83
2016-11-02T06:07:58.074Z,98.03
2016-11-02T06:08:38.606Z,98.22
2016-11-02T06:09:19.131Z,98.03
2016-11-02T06:09:59.662Z,98.03
2016-11-02T06:10:40.197Z,98.22
2016-11-02T06:11:20.716Z,98.31
2016-11-02T06:12:01.234Z,98.22
2016-11-02T06:12:41.762Z,98.03
2016-11-02T06:13:22.301Z,98.5
2016-11-02T06:14:02.827Z,98.22
2016-11-02T06:14:43.343Z,98.03
2016-11-02T06:15:23.866Z,97.74
2016-11-02T06:16:04.403Z,98.41
2016-11-02T06:16:44.936Z,98.6
2016-11-02T06:17:25.448Z,98.22
2016-11-02T06:18:05.987Z,98.41
2016-11-02T06:18:46.523Z,98.12
2016-11-02T06:19:27.068Z,98.31
2016-11-02T06:20:07.612Z,98.79
2016-11-02T06:20:48.148Z,98.22
2016-11-02T06:21:28.681Z,98.03
2016-11-02T06:22:09.205Z,98.5
2016-11-02T06:22:49.732Z,98.5
2016-11-02T06:23:30.266Z,98.31
2016-11-02T06:24:10.810Z,98.41
2016-11-02T06:24:51.387Z,98.6
2016-11-02T06:25:31.914Z,98.5
2016-11-02T06:26:12.444Z,98.79
2016-11-02T06:26:52.981Z,98.6
2016-11-02T06:27:33.505Z,99.16
2016-11-02T06:28:14.016Z,99.26
2016-11-02T06:28:54.536Z,99.64
2016-11-02T06:29:35.037Z,99.26
2016-11-02T06:30:15.584Z,99.16
2016-11-02T06:30:56.095Z,99.26
2016-11-02T06:31:36.608Z,99.16
2016-11-02T06:32:17.133Z,99.07
2016-11-02T06:32:57.674Z,99.26
2016-11-02T06:33:38.206Z,99.16
2016-11-02T06:34:18.752Z,99.36
2016-11-02T06:34:59.287Z,99.84
2016-11-02T06:35:39.826Z,99.64
2016-11-02T06:36:20.343Z,99.64
2016-11-02T06:37:00.877Z,99.45
2016-11-02T06:37:41.406Z,99.64
2016-11-02T06:38:22.010Z,99.26
2016-11-02T06:39:02.581Z,98.79
2016-11-02T06:39:43.137Z,98.88
2016-11-02T06:40:23.675Z,98.41
2016-11-02T06:41:04.195Z,98.41
2016-11-02T06:41:44.733Z,98.5
2016-11-02T06:42:25.254Z,98.41
2016-11-02T06:43:05.790Z,98.5
2016-11-02T06:43:46.315Z,98.5
2016-11-02T06:44:26.852Z,98.79
2016-11-02T06:45:07.384Z,98.6
2016-11-02T06:45:47.918Z,98.31
2016-11-02T06:46:28.432Z,98.6
2016-11-02T06:47:08.968Z,98.79
2016-11-02T06:47:49.482Z,98.41
2016-11-02T06:48:30.006Z,98.41
2016-11-02T06:49:10.538Z,98.5
2016-11-02T06:49:51.074Z,98.31
2016-11-02T06:50:31.622Z,97.93
2016-11-02T06:51:12.145Z,98.12
2016-11-02T06:51:52.660Z,98.12
2016-11-02T06:52:33.186Z,98.22
2016-11-02T06:53:13.705Z,97.27
2016-11-02T06:53:54.232Z,96.79
2016-11-02T06:54:34.767Z,96.69
2016-11-02T06:55:15.283Z,96.31
2016-11-02T06:55:55.797Z,97.17
2016-11-02T06:56:36.315Z,96.69
2016-11-02T06:57:16.837Z,96.5
2016-11-02T06:57:57.375Z,97.17
2016-11-02T06:58:37.896Z,96.22
2016-11-02T06:59:18.419Z,96.89
2016-11-02T06:59:58.943Z,96.5
2016-11-02T07:00:39.464Z,96.69
2016-11-02T07:01:19.996Z,97.17
2016-11-02T07:02:00.543Z,96.79
2016-11-02T07:02:41.066Z,96.5
2016-11-02T07:03:21.582Z,96.89
2016-11-02T07:04:02.204Z,96.69
2016-11-02T07:04:42.643Z,96.5
2016-11-02T07:05:23.174Z,96.79
2016-11-02T07:06:03.731Z,96.89
2016-11-02T07:06:44.222Z,96.6
2016-11-02T07:07:24.730Z,96.79
2016-11-02T07:08:05.236Z,96.12
2016-11-02T07:08:45.762Z,96.6
2016-11-02T07:09:26.307Z,96.98
2016-11-02T07:10:06.856Z,96.98
2016-11-02T07:10:47.404Z,96.69
2016-11-02T07:11:27.951Z,96.6
2016-11-02T07:12:08.499Z,96.69
2016-11-02T07:12:49.046Z,96.79
2016-11-02T07:13:29.576Z,96.41
2016-11-02T07:14:10.103Z,96.6
2016-11-02T07:14:50.619Z,96.6
2016-11-02T07:15:31.165Z,95.94
2016-11-02T07:16:11.707Z,96.69
2016-11-02T07:16:52.241Z,96.5
2016-11-02T07:17:32.782Z,96.5
2016-11-02T07:18:13.297Z,96.5
2016-11-02T07:18:53.838Z,96.79
2016-11-02T07:19:34.371Z,95.65
2016-11-02T07:20:14.912Z,96.5
2016-11-02T07:20:55.442Z,95.84
2016-11-02T07:21:35.959Z,96.31
2016-11-02T07:22:16.474Z,96.36
2016-11-02T07:22:57.001Z,96.79
2016-11-02T07:23:37.528Z,96.5
2016-11-02T07:24:18.059Z,96.79
2016-11-02T07:24:58.596Z,96.79
2016-11-02T07:25:39.108Z,97.22
2016-11-02T07:26:19.664Z,96.6
2016-11-02T07:27:00.224Z,96.6
2016-11-02T07:27:40.730Z,96.84
2016-11-02T07:28:21.326Z,96.5
2016-11-02T07:29:01.818Z,96.6
2016-11-02T07:29:42.338Z,96.5
2016-11-02T07:30:22.870Z,96.6
2016-11-02T07:31:03.419Z,96.41
2016-11-02T07:31:43.965Z,96.69
2016-11-02T07:32:24.508Z,96.79
2016-11-02T07:33:05.058Z,96.5
2016-11-02T07:33:45.560Z,96.89
2016-11-02T07:34:26.085Z,96.79
2016-11-02T07:35:06.970Z,96.79
2016-11-02T07:35:47.502Z,96.6
2016-11-02T07:36:28.026Z,96.84
2016-11-02T07:37:08.556Z,96.84
2016-11-02T07:37:49.073Z,96.74
2016-11-02T07:38:29.603Z,96.94
2016-11-02T07:39:10.124Z,96.55
2016-11-02T07:39:50.689Z,96.84
2016-11-02T07:40:31.221Z,96.94
2016-11-02T07:41:11.769Z,96.55
2016-11-02T07:41:52.285Z,95.98
2016-11-02T07:42:32.794Z,96.26
2016-11-02T07:43:13.342Z,97.13
2016-11-02T07:43:53.875Z,96.17
2016-11-02T07:44:34.463Z,96.65
2016-11-02T07:45:15.017Z,95.89
2016-11-02T07:45:55.558Z,96.74
2016-11-02T07:46:36.095Z,96.46
2016-11-02T07:47:16.645Z,96.46
2016-11-02T07:47:57.210Z,96.55
2016-11-02T07:48:37.736Z,96.55
2016-11-02T07:49:18.272Z,96.65
2016-11-02T07:49:58.805Z,96.46
2016-11-02T07:50:39.316Z,97.03
2016-11-02T07:51:19.836Z,96.46
2016-11-02T07:52:00.365Z,95.98
2016-11-02T07:52:40.898Z,96.46
2016-11-02T07:53:21.418Z,96.84
2016-11-02T07:54:01.970Z,96.74
2016-11-02T07:54:42.516Z,96.65
2016-11-02T07:55:23.026Z,96.26
2016-11-02T07:56:03.544Z,96.74
2016-11-02T07:56:44.078Z,96.74
2016-11-02T07:57:24.616Z,97.03
2016-11-02T07:58:05.144Z,97.22
2016-11-02T07:58:45.683Z,97.03
2016-11-02T07:59:26.219Z,96.94
2016-11-02T08:00:06.922Z,97.22
2016-11-02T08:00:47.446Z,96.84
2016-11-02T08:01:27.999Z,97.69
2016-11-02T08:02:08.518Z,97.45
2016-11-02T08:02:49.075Z,98.03
2016-11-02T08:03:29.602Z,98.17
2016-11-02T08:04:10.090Z,98.22
2016-11-02T08:04:50.638Z,98.41
2016-11-02T08:05:31.196Z,97.64
2016-11-02T08:06:11.743Z,97.83
2016-11-02T08:06:52.268Z,98.31
2016-11-02T08:07:32.788Z,98.65
2016-11-02T08:08:13.357Z,98.36
2016-11-02T08:08:53.868Z,98.36
2016-11-02T08:09:34.405Z,98.46
2016-11-02T08:10:14.928Z,98.36
2016-11-02T08:10:55.448Z,98.55
2016-11-02T08:11:35.991Z,98.27
2016-11-02T08:12:16.507Z,98.46
2016-11-02T08:12:57.214Z,98.65
2016-11-02T08:13:37.595Z,98.36
2016-11-02T08:14:18.101Z,97.98
2016-11-02T08:14:58.643Z,97.69
2016-11-02T08:15:39.144Z,97.88
2016-11-02T08:16:19.693Z,98.08
2016-11-02T08:17:00.174Z,98.27
2016-11-02T08:17:40.767Z,98.36
2016-11-02T08:18:21.353Z,97.98
2016-11-02T08:19:01.923Z,98.36
2016-11-02T08:19:42.463Z,98.27
2016-11-02T08:20:23.006Z,97.98
2016-11-02T08:21:03.514Z,98.36
2016-11-02T08:21:44.061Z,97.88
2016-11-02T08:22:24.569Z,98.36
2016-11-02T08:23:05.108Z,98.27
2016-11-02T08:23:45.652Z,98.27
2016-11-02T08:24:26.233Z,98.36
2016-11-02T08:25:06.738Z,98.46
2016-11-02T08:25:47.300Z,97.98
2016-11-02T08:26:27.761Z,97.88
2016-11-02T08:27:08.313Z,98.27
2016-11-02T08:27:48.835Z,98.27
2016-11-02T08:28:29.363Z,98.65
2016-11-02T08:29:09.892Z,98.08
2016-11-02T08:29:50.424Z,98.08
2016-11-02T08:30:30.948Z,98.36
2016-11-02T08:31:11.529Z,98.36
2016-11-02T08:31:52.063Z,97.98
2016-11-02T08:32:32.584Z,98.17
2016-11-02T08:33:13.215Z,97.98
2016-11-02T08:33:53.727Z,98.27
2016-11-02T08:34:34.273Z,98.46
2016-11-02T08:35:14.779Z,98.27
2016-11-02T08:35:55.339Z,98.36
2016-11-02T08:36:35.861Z,98.46
2016-11-02T08:37:16.371Z,98.36
2016-11-02T08:37:56.936Z,98.17
2016-11-02T08:38:37.455Z,98.27
2016-11-02T08:39:17.991Z,98.55
2016-11-02T08:39:58.509Z,98.65
2016-11-02T08:40:39.028Z,98.46
2016-11-02T08:41:19.557Z,98.36
2016-11-02T08:42:00.090Z,98.46
2016-11-02T08:42:40.629Z,98.65
2016-11-02T08:43:21.204Z,98.36
2016-11-02T08:44:01.676Z,98.27
2016-11-02T08:44:42.212Z,98.65
2016-11-02T08:45:22.790Z,99.02
2016-11-02T08:46:03.242Z,98.36
2016-11-02T08:46:43.805Z,98.74
2016-11-02T08:47:24.298Z,99.31
2016-11-02T08:48:04.837Z,99.31
2016-11-02T08:48:45.943Z,99.22
2016-11-02T08:49:25.995Z,99.22
2016-11-02T08:50:06.503Z,99.22
2016-11-02T08:50:47.042Z,98.65
2016-11-02T08:51:27.580Z,98.74
2016-11-02T08:52:08.119Z,98.83
2016-11-02T08:52:48.652Z,98.36
2016-11-02T08:53:29.167Z,98.36
2016-11-02T08:54:09.704Z,98.46
2016-11-02T08:54:50.254Z,98.36
2016-11-02T08:55:30.805Z,98.27
2016-11-02T08:56:11.282Z,98.17
2016-11-02T08:56:51.827Z,97.79
2016-11-02T08:57:32.351Z,98.83
2016-11-02T08:58:12.882Z,98.17
2016-11-02T08:58:53.421Z,98.27
2016-11-02T08:59:33.944Z,97.41
2016-11-02T09:00:14.475Z,97.03
2016-11-02T09:00:55.002Z,97.03
2016-11-02T09:01:35.523Z,97.88
2016-11-02T09:02:16.041Z,97.03
2016-11-02T09:02:56.597Z,97.69
2016-11-02T09:03:37.121Z,97.6
2016-11-02T09:04:17.647Z,97.88
2016-11-02T09:04:58.180Z,97.69
2016-11-02T09:05:38.696Z,97.88
2016-11-02T09:06:19.227Z,97.88
2016-11-02T09:06:59.758Z,97.6
2016-11-02T09:07:40.312Z,97.6
2016-11-02T09:08:20.849Z,97.22
2016-11-02T09:09:01.382Z,97.03
2016-11-02T09:09:41.899Z,97.5
2016-11-02T09:10:22.395Z,97.31
2016-11-02T09:11:02.918Z,97.31
2016-11-02T09:11:43.478Z,96.94
2016-11-02T09:12:23.991Z,96.74
2016-11-02T09:13:04.519Z,97.22
2016-11-02T09:13:45.045Z,97.03
2016-11-02T09:14:25.608Z,97.13
2016-11-02T09:15:06.129Z,96.94
2016-11-02T09:15:46.679Z,96.84
2016-11-02T09:16:27.201Z,97.41
2016-11-02T09:17:07.739Z,96.65
2016-11-02T09:17:48.306Z,96.65
2016-11-02T09:18:28.852Z,97.13
2016-11-02T09:19:09.371Z,96.55
2016-11-02T09:19:49.876Z,96.36
2016-11-02T09:20:30.428Z,97.22
2016-11-02T09:21:10.979Z,97.03
2016-11-02T09:21:51.509Z,96.94
2016-11-02T09:22:32.053Z,96.65
2016-11-02T09:23:12.595Z,96.74
2016-11-02T09:23:53.135Z,96.55
2016-11-02T09:24:33.665Z,95.79
2016-11-02T09:25:14.203Z,96.55
2016-11-02T09:25:54.730Z,95.98
2016-11-02T09:26:35.256Z,96.84